createdAt,value
2023-03-25T00:00:59.011Z,7.79
2023-03-25T00:05:56.831Z,7.93
2023-03-25T00:10:54.464Z,8.05
2023-03-25T00:15:53.339Z,8.16
2023-03-25T00:20:50.914Z,8.30
2023-03-25T00:25:48.522Z,8.37
2023-03-25T00:30:45.991Z,8.50
2023-03-25T00:35:45.293Z,8.51
2023-03-25T00:40:44.328Z,8.52
2023-03-25T00:45:40.728Z,8.48
2023-03-25T00:50:37.112Z,8.36
2023-03-25T00:55:33.455Z,8.31
2023-03-25T01:00:29.852Z,8.26
2023-03-25T01:05:26.197Z,8.26
2023-03-25T01:10:23.179Z,8.27
2023-03-25T01:15:19.645Z,8.30
2023-03-25T01:20:16.641Z,8.28
2023-03-25T01:25:13.067Z,8.23
2023-03-25T01:30:10.803Z,8.17
2023-03-25T01:35:07.930Z,8.18
2023-03-25T01:40:08.425Z,8.17
2023-03-25T01:45:29.737Z,8.15
2023-03-25T01:50:28.936Z,8.11
2023-03-25T01:55:27.520Z,8.06
2023-03-25T02:00:23.821Z,8.09
2023-03-25T02:05:25.806Z,8.07
2023-03-25T02:10:22.204Z,8.11
2023-03-25T02:15:20.808Z,8.13
2023-03-25T02:20:49.679Z,8.13
2023-03-25T02:26:29.734Z,8.12
2023-03-25T02:31:49.868Z,8.08
2023-03-25T02:37:11.629Z,8.16
2023-03-25T02:42:26.713Z,8.00
2023-03-25T02:47:26.567Z,7.77
2023-03-25T02:52:31.027Z,7.73
2023-03-25T02:57:28.743Z,7.74
2023-03-25T03:02:29.137Z,7.82
2023-03-25T03:07:47.048Z,7.84
2023-03-25T03:13:03.268Z,7.74
2023-03-25T03:18:13.405Z,7.66
2023-03-25T03:23:24.120Z,7.53
2023-03-25T03:28:37.916Z,7.33
2023-03-25T03:33:47.340Z,7.22
2023-03-25T03:38:49.712Z,7.26
2023-03-25T03:43:54.386Z,7.11
2023-03-25T03:49:00.522Z,6.97
2023-03-25T03:54:08.588Z,6.93
2023-03-25T03:59:14.331Z,6.96
2023-03-25T04:04:11.992Z,7.07
2023-03-25T04:09:19.819Z,7.10
2023-03-25T04:14:16.879Z,7.10
2023-03-25T04:19:19.290Z,7.14
2023-03-25T04:24:16.920Z,7.18
2023-03-25T04:29:16.965Z,7.20
2023-03-25T04:34:14.882Z,7.28
2023-03-25T04:39:11.922Z,7.33
2023-03-25T04:44:08.320Z,7.35
2023-03-25T04:49:14.210Z,7.40
2023-03-25T04:54:11.996Z,7.44
2023-03-25T04:59:09.647Z,7.50
2023-03-25T05:04:06.250Z,7.49
2023-03-25T05:09:04.605Z,7.56
2023-03-25T05:14:01.012Z,7.57
2023-03-25T05:18:57.498Z,7.61
2023-03-25T05:23:53.957Z,7.60
2023-03-25T05:28:51.639Z,7.63
2023-03-25T05:33:48.129Z,7.62
2023-03-25T05:38:44.652Z,7.62
2023-03-25T05:43:40.966Z,7.50
2023-03-25T05:48:37.338Z,7.50
2023-03-25T05:53:33.709Z,7.47
2023-03-25T05:58:32.771Z,7.43
2023-03-25T06:03:29.254Z,7.42
2023-03-25T06:08:26.278Z,7.45
2023-03-25T06:13:23.121Z,7.28
2023-03-25T06:18:22.551Z,7.19
2023-03-25T06:23:20.322Z,7.26
2023-03-25T06:28:18.686Z,7.31
2023-03-25T06:33:16.218Z,7.45
2023-03-25T06:38:34.081Z,7.56
2023-03-25T06:43:30.796Z,7.53
2023-03-25T06:48:27.230Z,7.39
2023-03-25T06:53:23.683Z,7.35
2023-03-25T06:58:20.399Z,7.29
2023-03-25T07:03:16.747Z,7.40
2023-03-25T07:08:13.277Z,7.52
2023-03-25T07:13:11.024Z,7.61
2023-03-25T07:18:07.419Z,7.48
2023-03-25T07:23:03.820Z,7.31
2023-03-25T07:28:00.476Z,7.14
2023-03-25T07:32:56.947Z,7.06
2023-03-25T07:37:53.372Z,7.03
2023-03-25T07:42:49.809Z,6.99
2023-03-25T07:47:50.195Z,6.92
2023-03-25T07:52:47.523Z,6.96
2023-03-25T07:57:43.878Z,6.97
2023-03-25T08:02:40.696Z,6.92
2023-03-25T08:07:37.110Z,6.95
2023-03-25T08:12:33.474Z,7.01
2023-03-25T08:17:30.010Z,7.20
2023-03-25T08:22:27.420Z,7.36
2023-03-25T08:27:24.248Z,7.55
2023-03-25T08:32:21.522Z,7.71
2023-03-25T08:37:17.969Z,7.79
2023-03-25T08:42:14.367Z,7.98
2023-03-25T08:47:11.446Z,8.14
2023-03-25T08:52:08.741Z,8.27
2023-03-25T08:57:05.946Z,8.22
2023-03-25T09:02:02.454Z,8.27
2023-03-25T09:07:10.863Z,8.43
2023-03-25T09:12:09.472Z,8.47
2023-03-25T09:17:10.157Z,8.52
2023-03-25T09:22:07.623Z,8.79
2023-03-25T09:27:04.161Z,9.06
2023-03-25T09:32:01.231Z,9.08
2023-03-25T09:36:58.023Z,9.26
2023-03-25T09:42:10.321Z,9.20
2023-03-25T09:47:10.913Z,9.17
2023-03-25T09:52:36.326Z,9.20
2023-03-25T09:57:41.374Z,9.29
2023-03-25T10:02:46.453Z,9.24
2023-03-25T10:07:54.243Z,9.21
2023-03-25T10:13:42.650Z,9.20
2023-03-25T10:18:50.023Z,8.99
2023-03-25T10:23:57.117Z,8.85
2023-03-25T10:29:01.882Z,9.11
2023-03-25T10:34:05.314Z,9.22
2023-03-25T10:39:04.949Z,9.26
2023-03-25T10:44:02.051Z,9.34
2023-03-25T10:48:58.660Z,9.15
2023-03-25T10:53:55.760Z,9.25
2023-03-25T10:58:55.033Z,9.25
2023-03-25T11:03:53.764Z,9.48
2023-03-25T11:08:58.567Z,9.92
2023-03-25T11:13:57.315Z,9.77
2023-03-25T11:18:54.172Z,9.31
2023-03-25T11:23:51.810Z,9.19
2023-03-25T11:28:54.961Z,9.27
2023-03-25T11:34:13.673Z,8.72
2023-03-25T11:39:29.486Z,9.21
2023-03-25T11:44:30.825Z,9.49
2023-03-25T11:49:29.686Z,9.65
2023-03-25T11:54:27.921Z,9.78
2023-03-25T11:59:27.372Z,9.73
2023-03-25T12:04:25.068Z,9.63
2023-03-25T12:09:21.453Z,9.77
2023-03-25T12:14:44.797Z,9.69
2023-03-25T12:19:58.636Z,9.60
2023-03-25T12:25:08.147Z,9.69
2023-03-25T12:30:29.763Z,9.83
2023-03-25T12:35:44.521Z,9.64
2023-03-25T12:41:09.941Z,9.29
2023-03-25T12:46:19.187Z,8.98
2023-03-25T12:51:45.635Z,8.63
2023-03-25T12:56:57.423Z,8.48
2023-03-25T13:02:11.879Z,7.91
2023-03-25T13:07:16.623Z,7.83
2023-03-25T13:12:16.597Z,8.05
2023-03-25T13:17:27.071Z,7.89
2023-03-25T13:22:34.740Z,7.78
2023-03-25T13:27:34.223Z,7.91
2023-03-25T13:32:38.688Z,8.24
2023-03-25T13:37:39.553Z,8.36
2023-03-25T13:42:55.518Z,8.46
2023-03-25T13:48:19.675Z,9.33
2023-03-25T13:53:27.530Z,9.53
2023-03-25T13:58:30.092Z,9.72
2023-03-25T14:03:51.595Z,8.78
2023-03-25T14:09:11.095Z,8.63
2023-03-25T14:14:11.587Z,8.57
2023-03-25T14:19:13.840Z,8.47
2023-03-25T14:24:18.290Z,8.40
2023-03-25T14:29:36.717Z,8.32
2023-03-25T14:34:33.846Z,8.28
2023-03-25T14:39:30.158Z,8.03
2023-03-25T14:44:29.380Z,7.80
2023-03-25T14:49:50.415Z,7.76
2023-03-25T14:54:56.607Z,7.71
2023-03-25T15:00:01.812Z,7.69
2023-03-25T15:05:02.288Z,7.69
2023-03-25T15:09:58.892Z,7.66
2023-03-25T15:15:03.916Z,7.73
2023-03-25T15:20:05.841Z,7.88
2023-03-25T15:25:07.340Z,8.01
2023-03-25T15:30:23.361Z,8.04
2023-03-25T15:35:40.943Z,8.19
2023-03-25T15:41:11.286Z,8.26
2023-03-25T15:46:30.354Z,8.89
2023-03-25T15:51:46.958Z,9.18
2023-03-25T15:56:46.550Z,9.08
2023-03-25T16:01:47.521Z,9.15
2023-03-25T16:06:46.378Z,8.90
2023-03-25T16:11:45.662Z,8.58
2023-03-25T16:16:47.943Z,8.39
2023-03-25T16:21:48.960Z,8.33
2023-03-25T16:26:48.109Z,8.28
2023-03-25T16:32:02.172Z,8.25
2023-03-25T16:36:59.610Z,8.18
2023-03-25T16:42:06.895Z,8.11
2023-03-25T16:47:03.964Z,7.95
2023-03-25T16:52:03.315Z,6.80
2023-03-25T16:57:01.296Z,6.93
2023-03-25T17:01:59.696Z,7.13
2023-03-25T17:07:00.114Z,7.17
2023-03-25T17:11:57.714Z,7.28
2023-03-25T17:16:54.683Z,7.36
2023-03-25T17:22:05.378Z,7.33
2023-03-25T17:27:18.379Z,7.28
2023-03-25T17:32:18.127Z,7.27
2023-03-25T17:37:15.377Z,7.32
2023-03-25T17:42:23.745Z,7.35
2023-03-25T17:47:21.592Z,7.31
2023-03-25T17:52:20.315Z,7.17
2023-03-25T17:57:17.929Z,7.06
2023-03-25T18:02:16.053Z,7.03
2023-03-25T18:07:12.481Z,6.94
2023-03-25T18:12:10.299Z,6.91
2023-03-25T18:17:06.792Z,6.85
2023-03-25T18:22:13.764Z,6.78
2023-03-25T18:27:16.102Z,6.69
2023-03-25T18:32:12.583Z,6.67
2023-03-25T18:37:11.102Z,6.62
2023-03-25T18:42:07.491Z,6.58
2023-03-25T18:47:04.105Z,6.50
2023-03-25T18:52:02.460Z,6.40
2023-03-25T18:56:58.934Z,6.31
2023-03-25T19:01:56.039Z,6.24
2023-03-25T19:06:53.470Z,6.24
2023-03-25T19:11:49.817Z,6.15
2023-03-25T19:16:57.337Z,6.14
2023-03-25T19:22:00.098Z,6.14
2023-03-25T19:26:57.403Z,6.18
2023-03-25T19:31:53.824Z,6.19
2023-03-25T19:36:53.228Z,6.14
2023-03-25T19:41:51.285Z,6.07
2023-03-25T19:46:47.636Z,6.14
2023-03-25T19:51:45.173Z,6.16
2023-03-25T19:56:42.370Z,6.16
2023-03-25T20:01:38.853Z,6.18
2023-03-25T20:06:37.081Z,6.17
2023-03-25T20:11:33.770Z,6.26
2023-03-25T20:16:30.880Z,6.45
2023-03-25T20:21:27.267Z,6.29
2023-03-25T20:26:23.703Z,6.29
2023-03-25T20:31:22.944Z,6.17
2023-03-25T20:36:21.468Z,6.29
2023-03-25T20:41:17.932Z,6.27
2023-03-25T20:46:14.973Z,6.21
2023-03-25T20:51:11.729Z,6.16
2023-03-25T20:56:08.223Z,6.11
2023-03-25T21:01:05.124Z,6.04
2023-03-25T21:06:10.317Z,5.99
2023-03-25T21:11:10.086Z,5.98
2023-03-25T21:16:07.196Z,5.97
2023-03-25T21:21:03.842Z,6.02
2023-03-25T21:26:09.241Z,6.07
2023-03-25T21:31:21.797Z,6.13
2023-03-25T21:36:24.326Z,6.22
2023-03-25T21:41:20.974Z,6.16
2023-03-25T21:46:17.487Z,6.16
2023-03-25T21:51:16.833Z,6.17
2023-03-25T21:56:20.168Z,6.21
2023-03-25T22:01:23.040Z,6.24
2023-03-25T22:06:23.024Z,6.28
2023-03-25T22:11:22.316Z,6.32
2023-03-25T22:16:20.019Z,6.41
2023-03-25T22:21:19.780Z,6.45
2023-03-25T22:26:17.457Z,6.52
2023-03-25T22:31:17.361Z,6.57
2023-03-25T22:36:15.877Z,6.61
2023-03-25T22:41:14.960Z,6.65
2023-03-25T22:46:11.626Z,6.68
2023-03-25T22:51:10.809Z,6.74
2023-03-25T22:56:08.219Z,6.75
2023-03-25T23:01:16.455Z,6.79
2023-03-25T23:06:14.204Z,6.82
2023-03-25T23:11:12.123Z,6.85
2023-03-25T23:16:11.218Z,6.89
2023-03-25T23:21:11.947Z,6.95
2023-03-25T23:26:14.629Z,6.94
2023-03-25T23:31:14.151Z,6.90
2023-03-25T23:36:10.607Z,6.85
2023-03-25T23:41:09.645Z,6.87
2023-03-25T23:46:08.467Z,6.88
2023-03-25T23:51:05.111Z,6.86
2023-03-25T23:56:01.470Z,6.87
